createdAt,value
2018-02-12T00:01:55.743Z,2.90
2018-02-12T00:04:24.136Z,2.80
2018-02-12T00:06:52.473Z,2.70
2018-02-12T00:09:20.659Z,2.60
2018-02-12T00:11:49.066Z,2.30
2018-02-12T00:14:17.426Z,2.10
2018-02-12T00:16:46.008Z,2.00
2018-02-12T00:19:14.750Z,2.00
2018-02-12T00:21:44.145Z,2.00
2018-02-12T00:24:13.285Z,2.00
2018-02-12T00:26:42.480Z,2.00
2018-02-12T00:29:11.058Z,2.10
2018-02-12T00:31:39.612Z,2.10
2018-02-12T00:34:08.760Z,2.20
2018-02-12T00:36:37.136Z,2.20
2018-02-12T00:39:05.338Z,2.30
2018-02-12T00:41:33.720Z,2.30
2018-02-12T00:44:02.165Z,2.30
2018-02-12T00:46:30.186Z,2.40
2018-02-12T00:48:59.416Z,2.40
2018-02-12T00:51:27.775Z,2.40
2018-02-12T00:53:56.254Z,2.50
2018-02-12T00:56:24.845Z,2.50
2018-02-12T00:58:53.336Z,2.40
2018-02-12T01:01:22.011Z,2.40
2018-02-12T01:03:50.373Z,2.40
2018-02-12T01:06:19.594Z,2.40
2018-02-12T01:08:48.228Z,2.40
2018-02-12T01:11:18.295Z,2.40
2018-02-12T01:13:46.730Z,2.40
2018-02-12T01:16:15.884Z,2.40
2018-02-12T01:18:44.246Z,2.40
2018-02-12T01:21:12.644Z,2.40
2018-02-12T01:23:41.192Z,2.50
2018-02-12T01:26:09.600Z,2.50
2018-02-12T01:28:37.975Z,2.50
2018-02-12T01:31:06.501Z,2.50
2018-02-12T01:33:35.009Z,2.50
2018-02-12T01:36:04.076Z,2.40
2018-02-12T01:38:33.416Z,2.40
2018-02-12T01:41:01.801Z,2.40
2018-02-12T01:43:30.357Z,2.30
2018-02-12T01:45:59.738Z,2.20
2018-02-12T01:48:28.390Z,2.20
2018-02-12T01:50:56.812Z,2.20
2018-02-12T01:53:25.954Z,2.10
2018-02-12T01:55:54.348Z,2.10
2018-02-12T01:58:22.717Z,2.10
2018-02-12T02:00:51.147Z,2.10
2018-02-12T02:03:20.438Z,2.20
2018-02-12T02:05:49.860Z,2.10
2018-02-12T02:08:18.285Z,2.20
2018-02-12T02:10:46.675Z,2.20
2018-02-12T02:13:15.118Z,2.20
2018-02-12T02:15:43.704Z,2.20
2018-02-12T02:18:12.381Z,2.10
2018-02-12T02:20:40.424Z,2.10
2018-02-12T02:23:09.607Z,2.10
2018-02-12T02:25:38.317Z,2.10
2018-02-12T02:28:07.582Z,2.10
2018-02-12T02:30:36.157Z,2.10
2018-02-12T02:33:04.670Z,2.10
2018-02-12T02:35:33.858Z,2.10
2018-02-12T02:38:03.230Z,2.10
2018-02-12T02:40:31.608Z,2.10
2018-02-12T02:42:59.979Z,2.10
2018-02-12T02:45:28.367Z,2.10
2018-02-12T02:47:56.728Z,2.20
2018-02-12T02:50:25.122Z,2.10
2018-02-12T02:52:53.490Z,2.10
2018-02-12T02:55:22.031Z,2.10
2018-02-12T02:57:50.574Z,2.10
2018-02-12T03:00:19.115Z,2.20
2018-02-12T03:02:47.647Z,2.10
2018-02-12T03:05:16.204Z,2.20
2018-02-12T03:07:44.658Z,2.20
2018-02-12T03:10:13.063Z,2.20
2018-02-12T03:12:41.777Z,2.30
2018-02-12T03:15:09.970Z,2.30
2018-02-12T03:17:39.314Z,2.30
2018-02-12T03:20:07.963Z,2.30
2018-02-12T03:22:36.547Z,2.30
2018-02-12T03:25:04.912Z,2.30
2018-02-12T03:27:34.061Z,2.40
2018-02-12T03:30:02.447Z,2.40
2018-02-12T03:32:30.991Z,2.40
2018-02-12T03:34:59.374Z,2.40
2018-02-12T03:37:27.751Z,2.40
2018-02-12T03:39:56.107Z,2.40
2018-02-12T03:42:24.748Z,2.40
2018-02-12T03:44:53.169Z,2.40
2018-02-12T03:47:22.453Z,2.50
2018-02-12T03:49:51.619Z,2.50
2018-02-12T03:52:20.039Z,2.50
2018-02-12T03:54:49.175Z,2.50
2018-02-12T03:57:17.555Z,2.40
2018-02-12T03:59:46.122Z,2.50
2018-02-12T04:02:14.680Z,2.50
2018-02-12T04:04:43.828Z,2.50
2018-02-12T04:07:12.195Z,2.50
2018-02-12T04:09:40.644Z,2.50
2018-02-12T04:12:09.109Z,2.50
2018-02-12T04:14:38.447Z,2.50
2018-02-12T04:17:06.892Z,2.50
2018-02-12T04:19:36.217Z,2.50
2018-02-12T04:22:04.693Z,2.50
2018-02-12T04:24:33.193Z,2.50
2018-02-12T04:27:01.588Z,2.50
2018-02-12T04:29:30.269Z,2.60
2018-02-12T04:31:58.794Z,2.50
2018-02-12T04:34:27.933Z,2.50
2018-02-12T04:36:56.343Z,2.50
2018-02-12T04:39:24.471Z,2.50
2018-02-12T04:41:53.004Z,2.50
2018-02-12T04:44:21.349Z,2.60
2018-02-12T04:46:49.812Z,2.60
2018-02-12T04:49:18.287Z,2.60
2018-02-12T04:51:46.977Z,2.60
2018-02-12T04:54:15.329Z,2.60
2018-02-12T04:56:45.331Z,2.50
2018-02-12T04:59:14.548Z,2.50
2018-02-12T05:01:43.130Z,2.50
2018-02-12T05:04:11.523Z,2.50
2018-02-12T05:06:39.944Z,2.50
2018-02-12T05:09:08.427Z,2.50
2018-02-12T05:11:36.783Z,2.50
2018-02-12T05:14:05.259Z,2.50
2018-02-12T05:16:33.649Z,2.50
2018-02-12T05:19:02.113Z,2.60
2018-02-12T05:21:30.469Z,2.60
2018-02-12T05:23:58.972Z,2.60
2018-02-12T05:26:27.622Z,2.60
2018-02-12T05:28:57.049Z,2.60
2018-02-12T05:31:25.575Z,2.60
2018-02-12T05:33:53.945Z,2.50
2018-02-12T05:36:22.320Z,2.50
2018-02-12T05:38:50.698Z,2.50
2018-02-12T05:41:19.288Z,2.50
2018-02-12T05:43:47.774Z,2.40
2018-02-12T05:46:16.133Z,2.40
2018-02-12T05:48:44.524Z,2.40
2018-02-12T05:51:12.902Z,2.30
2018-02-12T05:53:41.280Z,2.30
2018-02-12T05:56:09.680Z,2.30
2018-02-12T05:58:39.942Z,2.30
2018-02-12T06:01:09.075Z,2.30
2018-02-12T06:03:37.426Z,2.30
2018-02-12T06:06:05.843Z,2.30
2018-02-12T06:08:34.403Z,2.30
2018-02-12T06:11:02.775Z,2.40
2018-02-12T06:13:32.566Z,2.30
2018-02-12T06:16:00.940Z,2.40
2018-02-12T06:18:29.420Z,2.40
2018-02-12T06:20:57.800Z,2.40
2018-02-12T06:23:26.149Z,2.50
2018-02-12T06:25:54.217Z,2.50
2018-02-12T06:28:23.371Z,2.60
2018-02-12T06:30:51.729Z,2.60
2018-02-12T06:33:20.115Z,2.60
2018-02-12T06:35:48.479Z,2.60
2018-02-12T06:38:17.095Z,2.60
2018-02-12T06:40:45.459Z,2.60
2018-02-12T06:43:13.830Z,2.60
2018-02-12T06:45:42.175Z,2.60
2018-02-12T06:48:10.690Z,2.60
2018-02-12T06:50:39.157Z,2.60
2018-02-12T06:53:07.547Z,2.70
2018-02-12T06:55:35.926Z,2.70
2018-02-12T06:58:03.738Z,2.70
2018-02-12T07:00:32.931Z,2.70
2018-02-12T07:03:02.199Z,2.70
2018-02-12T07:05:30.582Z,2.70
2018-02-12T07:07:58.935Z,2.70
2018-02-12T07:10:28.055Z,2.70
2018-02-12T07:12:56.623Z,2.70
2018-02-12T07:15:25.296Z,2.70
2018-02-12T07:17:53.731Z,2.80
2018-02-12T07:20:22.892Z,2.80
2018-02-12T07:22:51.871Z,2.70
2018-02-12T07:25:20.532Z,2.70
2018-02-12T07:27:48.900Z,2.70
2018-02-12T07:30:17.314Z,2.70
2018-02-12T07:32:45.651Z,2.70
2018-02-12T07:35:14.802Z,2.70
2018-02-12T07:37:43.188Z,2.70
2018-02-12T07:40:11.531Z,2.80
2018-02-12T07:42:39.886Z,2.80
2018-02-12T07:45:08.392Z,2.90
2018-02-12T07:47:36.734Z,2.90
2018-02-12T07:50:05.884Z,3.00
2018-02-12T07:52:34.306Z,2.90
2018-02-12T07:55:02.772Z,3.00
2018-02-12T07:57:31.323Z,3.00
2018-02-12T07:59:59.883Z,2.90
2018-02-12T08:02:28.229Z,2.90
2018-02-12T08:04:57.363Z,2.90
2018-02-12T08:07:25.724Z,2.90
2018-02-12T08:09:54.102Z,2.80
2018-02-12T08:12:22.489Z,2.80
2018-02-12T08:14:51.729Z,2.80
2018-02-12T08:17:20.114Z,2.80
2018-02-12T08:19:48.478Z,2.70
2018-02-12T08:22:16.925Z,2.70
2018-02-12T08:24:45.282Z,2.70
2018-02-12T08:27:14.911Z,2.80
2018-02-12T08:29:43.474Z,2.80
2018-02-12T08:32:11.843Z,2.80
2018-02-12T08:34:40.975Z,2.80
2018-02-12T08:37:09.366Z,2.80
2018-02-12T08:39:37.717Z,2.90
2018-02-12T08:42:06.124Z,3.00
2018-02-12T08:44:34.553Z,3.00
2018-02-12T08:47:03.679Z,3.20
2018-02-12T08:49:35.246Z,3.20
2018-02-12T08:52:03.599Z,3.30
2018-02-12T08:54:32.131Z,3.20
2018-02-12T08:57:00.501Z,3.10
2018-02-12T08:59:28.882Z,3.10
2018-02-12T09:01:57.423Z,3.10
2018-02-12T09:04:25.927Z,3.00
2018-02-12T09:06:54.194Z,3.00
2018-02-12T09:09:22.585Z,3.10
2018-02-12T09:11:50.951Z,3.10
2018-02-12T09:14:19.336Z,3.10
2018-02-12T09:16:47.715Z,3.10
2018-02-12T09:19:16.062Z,3.10
2018-02-12T09:21:44.685Z,3.10
2018-02-12T09:24:13.129Z,3.20
2018-02-12T09:26:41.501Z,3.20
2018-02-12T09:29:09.842Z,3.20
2018-02-12T09:31:38.975Z,3.40
2018-02-12T09:34:07.311Z,3.30
2018-02-12T09:36:35.663Z,3.50
2018-02-12T09:39:03.892Z,3.50
2018-02-12T09:41:32.276Z,3.60
2018-02-12T09:44:01.583Z,3.60
2018-02-12T09:46:29.928Z,3.70
2018-02-12T09:48:58.468Z,3.70
2018-02-12T09:51:27.303Z,3.70
2018-02-12T09:53:56.639Z,3.70
2018-02-12T09:56:25.092Z,3.70
2018-02-12T09:58:53.624Z,3.80
2018-02-12T10:01:22.004Z,3.90
2018-02-12T10:03:50.393Z,4.00
2018-02-12T10:06:18.757Z,4.10
2018-02-12T10:08:46.948Z,4.10
2018-02-12T10:11:15.333Z,4.10
2018-02-12T10:13:43.714Z,4.10
2018-02-12T10:16:12.333Z,4.00
2018-02-12T10:18:40.977Z,4.00
2018-02-12T10:21:09.527Z,3.90
2018-02-12T10:23:37.892Z,3.90
2018-02-12T10:26:06.265Z,3.90
2018-02-12T10:28:34.804Z,3.90
2018-02-12T10:31:03.182Z,4.00
2018-02-12T10:33:31.714Z,4.10
2018-02-12T10:36:00.090Z,4.20
2018-02-12T10:38:28.471Z,4.30
2018-02-12T10:40:56.974Z,4.40
2018-02-12T10:43:25.363Z,4.40
2018-02-12T10:45:54.777Z,4.60
2018-02-12T10:48:23.371Z,4.60
2018-02-12T10:50:51.924Z,4.60
2018-02-12T10:53:20.432Z,4.60
2018-02-12T10:55:48.809Z,4.70
2018-02-12T10:58:17.798Z,4.80
2018-02-12T11:00:46.227Z,4.80
2018-02-12T11:03:14.571Z,4.70
2018-02-12T11:05:43.701Z,4.50
2018-02-12T11:08:12.269Z,4.50
2018-02-12T11:10:40.962Z,4.40
2018-02-12T11:13:09.412Z,4.40
2018-02-12T11:15:38.840Z,4.40
2018-02-12T11:18:08.319Z,4.40
2018-02-12T11:20:37.457Z,4.50
2018-02-12T11:23:05.845Z,4.50
2018-02-12T11:25:34.511Z,4.60
2018-02-12T11:28:02.915Z,4.70
2018-02-12T11:30:31.313Z,4.60
2018-02-12T11:32:59.675Z,4.60
2018-02-12T11:35:28.061Z,4.50
2018-02-12T11:37:56.417Z,4.50
2018-02-12T11:40:24.951Z,4.50
2018-02-12T11:42:54.082Z,4.50
2018-02-12T11:45:22.968Z,4.50
2018-02-12T11:47:51.665Z,4.60
2018-02-12T11:50:20.083Z,4.70
2018-02-12T11:52:48.515Z,4.70
2018-02-12T11:55:17.143Z,4.80
2018-02-12T11:57:45.582Z,4.90
2018-02-12T12:00:14.266Z,5.10
2018-02-12T12:02:43.502Z,5.20
2018-02-12T12:05:12.243Z,5.20
2018-02-12T12:07:40.837Z,5.40
2018-02-12T12:10:09.186Z,5.60
2018-02-12T12:12:37.712Z,5.70
2018-02-12T12:15:06.193Z,5.70
2018-02-12T12:17:34.622Z,5.70
2018-02-12T12:20:04.116Z,5.70
2018-02-12T12:22:32.533Z,5.70
2018-02-12T12:25:00.923Z,5.80
2018-02-12T12:27:29.322Z,6.00
2018-02-12T12:29:57.766Z,6.10
2018-02-12T12:32:26.454Z,6.30
2018-02-12T12:34:55.020Z,6.30
2018-02-12T12:37:23.468Z,6.10
2018-02-12T12:39:52.805Z,6.10
2018-02-12T12:42:21.655Z,6.10
2018-02-12T12:44:50.773Z,6.30
2018-02-12T12:47:19.480Z,6.30
2018-02-12T12:49:47.827Z,6.40
2018-02-12T12:52:16.960Z,6.50
2018-02-12T12:54:45.350Z,6.50
2018-02-12T12:57:13.754Z,6.50
2018-02-12T12:59:43.840Z,6.50
2018-02-12T13:02:12.218Z,6.50
2018-02-12T13:04:41.810Z,6.50
2018-02-12T13:07:10.974Z,6.40
2018-02-12T13:09:40.650Z,6.20
2018-02-12T13:12:09.281Z,6.20
2018-02-12T13:14:38.091Z,6.30
2018-02-12T13:17:06.503Z,6.30
2018-02-12T13:19:34.962Z,6.20
2018-02-12T13:22:04.157Z,6.10
2018-02-12T13:24:32.540Z,6.00
2018-02-12T13:27:00.899Z,5.90
2018-02-12T13:29:29.251Z,5.80
2018-02-12T13:31:58.392Z,5.80
2018-02-12T13:34:26.919Z,5.80
2018-02-12T13:36:56.054Z,5.90
2018-02-12T13:39:24.395Z,5.90
2018-02-12T13:41:53.557Z,6.30
2018-02-12T13:44:21.953Z,6.30
2018-02-12T13:46:50.509Z,6.40
2018-02-12T13:49:18.865Z,6.50
2018-02-12T13:51:47.262Z,6.40
2018-02-12T13:54:15.625Z,6.40
2018-02-12T13:56:44.003Z,6.30
2018-02-12T13:59:12.351Z,6.50
2018-02-12T14:01:40.696Z,6.50
2018-02-12T14:04:09.200Z,6.40
2018-02-12T14:06:38.316Z,6.20
2018-02-12T14:09:06.709Z,6.20
2018-02-12T14:11:35.050Z,6.10
2018-02-12T14:14:04.570Z,5.90
2018-02-12T14:16:33.713Z,5.80
2018-02-12T14:19:02.098Z,5.80
2018-02-12T14:21:30.445Z,5.80
2018-02-12T14:23:58.863Z,5.70
2018-02-12T14:26:27.412Z,5.70
2018-02-12T14:28:55.780Z,5.60
2018-02-12T14:31:25.803Z,5.60
2018-02-12T14:33:54.297Z,5.50
2018-02-12T14:36:22.677Z,5.50
2018-02-12T14:38:51.865Z,5.50
2018-02-12T14:41:20.231Z,5.40
2018-02-12T14:43:48.716Z,5.40
2018-02-12T14:46:17.394Z,5.40
2018-02-12T14:48:45.757Z,5.40
2018-02-12T14:51:14.106Z,5.30
2018-02-12T14:53:43.239Z,5.20
2018-02-12T14:56:11.626Z,5.20
2018-02-12T14:58:39.974Z,5.30
2018-02-12T15:01:09.108Z,5.50
2018-02-12T15:03:37.477Z,5.50
2018-02-12T15:06:05.850Z,5.60
2018-02-12T15:08:34.187Z,5.60
2018-02-12T15:11:03.476Z,5.50
2018-02-12T15:13:31.838Z,5.40
2018-02-12T15:16:00.206Z,5.40
2018-02-12T15:18:28.261Z,5.30
2018-02-12T15:20:56.854Z,5.20
2018-02-12T15:23:25.233Z,5.20
2018-02-12T15:25:53.696Z,5.20
2018-02-12T15:28:22.075Z,5.20
2018-02-12T15:30:50.452Z,5.10
2018-02-12T15:33:18.833Z,5.10
2018-02-12T15:35:47.329Z,5.10
2018-02-12T15:38:15.705Z,5.10
2018-02-12T15:40:44.396Z,5.10
2018-02-12T15:43:12.759Z,5.10
2018-02-12T15:45:41.213Z,5.10
2018-02-12T15:48:09.573Z,5.10
2018-02-12T15:50:38.700Z,5.10
2018-02-12T15:53:07.896Z,5.10
2018-02-12T15:55:36.288Z,5.10
2018-02-12T15:58:05.605Z,5.10
2018-02-12T16:00:33.978Z,5.10
2018-02-12T16:03:02.483Z,5.10
2018-02-12T16:05:30.871Z,5.10
2018-02-12T16:07:59.718Z,5.10
2018-02-12T16:10:28.072Z,5.10
2018-02-12T16:12:56.439Z,5.20
2018-02-12T16:15:25.559Z,5.10
2018-02-12T16:17:53.937Z,5.10
2018-02-12T16:20:22.310Z,5.10
2018-02-12T16:22:50.832Z,5.10
2018-02-12T16:25:19.204Z,5.10
2018-02-12T16:27:47.924Z,5.00
2018-02-12T16:30:17.078Z,4.90
2018-02-12T16:32:45.490Z,4.90
2018-02-12T16:35:14.617Z,4.80
2018-02-12T16:37:42.989Z,4.80
2018-02-12T16:40:11.332Z,4.80
2018-02-12T16:42:39.730Z,4.70
2018-02-12T16:45:09.768Z,4.70
2018-02-12T16:47:38.127Z,4.70
2018-02-12T16:50:07.276Z,4.50
2018-02-12T16:52:35.637Z,4.50
2018-02-12T16:55:04.159Z,4.50
2018-02-12T16:57:32.506Z,4.40
2018-02-12T17:00:00.872Z,4.40
2018-02-12T17:02:29.363Z,4.30
2018-02-12T17:04:57.720Z,4.30
2018-02-12T17:07:26.102Z,4.30
2018-02-12T17:09:54.772Z,4.20
2018-02-12T17:12:23.362Z,4.20
2018-02-12T17:14:51.925Z,4.30
2018-02-12T17:17:20.320Z,4.30
2018-02-12T17:19:48.687Z,4.30
2018-02-12T17:22:17.275Z,4.20
2018-02-12T17:24:45.807Z,4.20
2018-02-12T17:27:14.223Z,4.10
2018-02-12T17:29:43.358Z,4.00
2018-02-12T17:32:11.704Z,4.00
2018-02-12T17:34:40.113Z,4.00
2018-02-12T17:37:08.760Z,3.90
2018-02-12T17:39:37.876Z,3.90
2018-02-12T17:42:06.299Z,3.90
2018-02-12T17:44:34.636Z,3.80
2018-02-12T17:47:03.224Z,3.80
2018-02-12T17:49:31.603Z,3.70
2018-02-12T17:52:00.144Z,3.80
2018-02-12T17:54:29.307Z,3.80
2018-02-12T17:56:57.737Z,3.80
2018-02-12T17:59:26.307Z,3.80
2018-02-12T18:01:55.657Z,3.80
2018-02-12T18:04:24.030Z,3.80
2018-02-12T18:06:52.368Z,3.80
2018-02-12T18:09:21.698Z,3.70
2018-02-12T18:11:50.050Z,3.70
2018-02-12T18:14:19.398Z,3.70
2018-02-12T18:16:47.460Z,3.60
2018-02-12T18:19:15.994Z,3.60
2018-02-12T18:21:44.372Z,3.60
2018-02-12T18:24:13.508Z,3.60
2018-02-12T18:26:41.885Z,3.60
2018-02-12T18:29:10.403Z,3.50
2018-02-12T18:31:38.751Z,3.50
2018-02-12T18:34:07.175Z,3.50
2018-02-12T18:36:36.315Z,3.50
2018-02-12T18:39:04.078Z,3.50
2018-02-12T18:41:32.484Z,3.50
2018-02-12T18:44:00.974Z,3.40
2018-02-12T18:46:29.564Z,3.40
2018-02-12T18:48:57.925Z,3.40
2018-02-12T18:51:26.303Z,3.40
2018-02-12T18:53:54.660Z,3.30
2018-02-12T18:56:23.251Z,3.30
2018-02-12T18:58:51.637Z,3.30
2018-02-12T19:01:20.088Z,3.30
2018-02-12T19:03:48.436Z,3.30
2018-02-12T19:06:17.564Z,3.30
2018-02-12T19:08:45.926Z,3.30
2018-02-12T19:11:14.373Z,3.30
2018-02-12T19:13:42.780Z,3.30
2018-02-12T19:16:12.104Z,3.30
2018-02-12T19:18:40.602Z,3.30
2018-02-12T19:21:09.055Z,3.20
2018-02-12T19:23:37.450Z,3.20
2018-02-12T19:26:05.648Z,3.20
2018-02-12T19:28:34.300Z,3.20
2018-02-12T19:31:02.679Z,3.20
2018-02-12T19:33:31.103Z,3.20
2018-02-12T19:35:59.476Z,3.10
2018-02-12T19:38:27.860Z,3.10
2018-02-12T19:40:56.352Z,3.10
2018-02-12T19:43:25.515Z,3.00
2018-02-12T19:45:53.974Z,3.10
2018-02-12T19:48:22.451Z,3.00
2018-02-12T19:50:50.863Z,3.00
2018-02-12T19:53:20.351Z,3.00
2018-02-12T19:55:48.761Z,3.00
2018-02-12T19:58:17.338Z,3.00
2018-02-12T20:00:45.802Z,3.00
2018-02-12T20:03:15.180Z,2.90
2018-02-12T20:05:43.914Z,2.90
2018-02-12T20:08:13.061Z,2.90
2018-02-12T20:10:41.468Z,2.90
2018-02-12T20:13:09.884Z,2.90
2018-02-12T20:15:39.287Z,2.90
2018-02-12T20:18:08.119Z,2.90
2018-02-12T20:20:36.475Z,2.90
2018-02-12T20:23:04.883Z,2.90
2018-02-12T20:25:33.129Z,2.90
2018-02-12T20:28:01.521Z,2.90
2018-02-12T20:30:30.037Z,2.80
2018-02-12T20:32:58.388Z,2.80
2018-02-12T20:35:26.803Z,2.80
2018-02-12T20:37:56.275Z,2.80
2018-02-12T20:40:24.952Z,2.80
2018-02-12T20:42:53.513Z,2.80
2018-02-12T20:45:21.900Z,2.90
2018-02-12T20:47:50.267Z,2.90
2018-02-12T20:50:18.687Z,2.90
2018-02-12T20:52:46.891Z,2.80
2018-02-12T20:55:16.072Z,2.80
2018-02-12T20:57:44.451Z,2.80
2018-02-12T21:00:12.873Z,2.80
2018-02-12T21:02:41.387Z,2.80
2018-02-12T21:05:09.917Z,2.80
2018-02-12T21:07:38.437Z,2.70
2018-02-12T21:10:06.864Z,2.70
2018-02-12T21:12:36.053Z,2.70
2018-02-12T21:15:04.500Z,2.70
2018-02-12T21:17:32.882Z,2.70
2018-02-12T21:20:01.258Z,2.80
2018-02-12T21:22:29.726Z,2.70
2018-02-12T21:24:58.288Z,2.70
2018-02-12T21:27:26.660Z,2.70
2018-02-12T21:29:55.233Z,2.70
2018-02-12T21:32:24.526Z,2.80
2018-02-12T21:34:53.836Z,2.80
2018-02-12T21:37:23.076Z,2.80
2018-02-12T21:39:51.519Z,2.80
2018-02-12T21:42:20.701Z,2.70
2018-02-12T21:44:49.998Z,2.70
2018-02-12T21:47:19.142Z,2.70
2018-02-12T21:49:47.514Z,2.70
2018-02-12T21:52:16.674Z,2.70
2018-02-12T21:54:45.838Z,2.70
2018-02-12T21:57:14.212Z,2.60
2018-02-12T21:59:42.582Z,2.60
2018-02-12T22:02:11.013Z,2.60
2018-02-12T22:04:40.139Z,2.60
2018-02-12T22:07:08.527Z,2.60
2018-02-12T22:09:37.100Z,2.60
2018-02-12T22:12:06.458Z,2.60
2018-02-12T22:14:35.695Z,2.60
2018-02-12T22:17:04.663Z,2.60
2018-02-12T22:19:33.166Z,2.60
2018-02-12T22:22:01.835Z,2.60
2018-02-12T22:24:30.189Z,2.60
2018-02-12T22:26:59.811Z,2.70
2018-02-12T22:29:28.463Z,2.60
2018-02-12T22:31:57.003Z,2.60
2018-02-12T22:34:25.369Z,2.60
2018-02-12T22:36:53.800Z,2.60
2018-02-12T22:39:22.320Z,2.60
2018-02-12T22:41:51.448Z,2.60
2018-02-12T22:44:19.909Z,2.60
2018-02-12T22:46:48.395Z,2.60
2018-02-12T22:49:17.535Z,2.60
2018-02-12T22:51:46.043Z,2.60
2018-02-12T22:54:15.302Z,2.60
2018-02-12T22:56:43.853Z,2.60
2018-02-12T22:59:12.234Z,2.60
2018-02-12T23:01:40.636Z,2.50
2018-02-12T23:04:09.026Z,2.50
2018-02-12T23:06:37.772Z,2.50
2018-02-12T23:09:06.158Z,2.50
2018-02-12T23:11:34.624Z,2.50
2018-02-12T23:14:03.132Z,2.50
2018-02-12T23:16:31.516Z,2.50
2018-02-12T23:19:00.178Z,2.50
2018-02-12T23:21:28.621Z,2.40
2018-02-12T23:23:58.694Z,2.40
2018-02-12T23:26:27.098Z,2.40
2018-02-12T23:28:55.531Z,2.50
2018-02-12T23:31:23.876Z,2.40
2018-02-12T23:33:52.375Z,2.40
2018-02-12T23:36:21.005Z,2.40
2018-02-12T23:38:49.539Z,2.40
2018-02-12T23:41:17.929Z,2.30
2018-02-12T23:43:46.328Z,2.30
2018-02-12T23:46:14.871Z,2.30
2018-02-12T23:48:44.121Z,2.30
2018-02-12T23:51:12.570Z,2.30
2018-02-12T23:53:41.004Z,2.30
2018-02-12T23:56:09.887Z,2.20
2018-02-12T23:58:38.252Z,2.20
